Flight Track Log - Related Links

Times and Time Zones

All times are in EDT time to prevent confusion due to time zone crossing. See the XOJ750 flight status page for this flight to view local times or setup timezone preferences in your user account.

Time Position Orientation Groundspeed Altitude Reporting Facility
EDT Latitude Longitude Course Direction KTS MPH feet Rate Location/Type
Fri 05:40:30 PM 39.2853 -106.9314 113° Southeast 244 281 10,100  Level Denver Center
Fri 05:41:32 PM 39.3006 -107.0200 283° West 247 284 12,700 2,274 Climbing Denver Center
Fri 05:42:34 PM 39.3361 -107.1086 297° West 278 320 14,800 1,984 Climbing Denver Center
Fri 05:43:36 PM 39.2764 -107.1617 215° Southwest 303 349 16,800 1,839 Climbing Denver Center
Fri 05:44:38 PM 39.2136 -107.0819 135° Southeast 321 369 18,600 2,032 Climbing Denver Center
Fri 05:45:00 PM 38.9156 -105.9604 113° Southeast  Level Estimated
Fri 05:45:40 PM 39.1122 -107.0367 161° South 344 396 21,000  Level Denver Center
Fri 05:46:42 PM 39.0175 -107.0372 180° South 352 405 22,900 1,984 Climbing Denver Center
Fri 05:47:44 PM 38.9031 -107.0378 180° South 363 418 25,100 1,790 Climbing Denver Center
Fri 05:48:46 PM 38.8169 -106.9908 157° South 379 436 26,600 1,500 Climbing Denver Center
Fri 05:49:48 PM 38.7336 -106.8994 139° Southeast 392 451 28,200 1,548 Climbing Denver Center
Fri 05:50:50 PM 38.6522 -106.7997 136° Southeast 404 465 29,800 1,403 Climbing Denver Center
Fri 05:51:52 PM 38.5783 -106.6856 130° Southeast 413 475 31,100 1,161 Climbing Denver Center
Fri 05:52:54 PM 38.4789 -106.5383 131° Southeast 444 511 32,200 968 Climbing Denver Center
Fri 05:53:56 PM 38.3933 -106.4194 133° Southeast 464 534 33,100 919 Climbing Denver Center
Fri 05:54:58 PM 38.3058 -106.2894 131° Southeast 482 555 34,100 968 Climbing Denver Center
Fri 05:56:00 PM 38.2108 -106.1517 131° Southeast 493 567 35,100 1,161 Climbing Denver Center
Fri 05:57:02 PM 38.1106 -106.0008 130° Southeast 499 574 36,500 1,500 Climbing Denver Center
Fri 05:58:04 PM 38.0253 -105.8739 130° Southeast 496 571 38,200 1,306 Climbing Denver Center
Fri 05:59:06 PM 37.9436 -105.7444 129° Southeast 492 566 39,200 1,024 Climbing Denver Center
Fri 06:00:07 PM 37.8478 -105.5903 128° Southeast 499 574 40,300 1,024 Climbing Denver Center
Fri 06:01:09 PM 37.7622 -105.4572 129° Southeast 507 583 41,300 1,016 Climbing Denver Center
Fri 06:02:11 PM 37.6642 -105.3036 129° Southeast 504 580 42,400 774 Climbing Denver Center
Fri 06:03:13 PM 37.5803 -105.1708 129° Southeast 507 583 42,900 484 Climbing Denver Center
Fri 06:04:15 PM 37.4817 -105.0161 129° Southeast 508 585 43,400 435 Climbing Denver Center
Fri 06:05:17 PM 37.3961 -104.8842 129° Southeast 510 587 43,800 532 Climbing Denver Center
Fri 06:06:19 PM 37.2961 -104.7317 129° Southeast 508 585 44,500 581 Climbing Denver Center
Fri 06:07:21 PM 37.2128 -104.6022 129° Southeast 503 579 45,000 242 Climbing Denver Center
Fri 06:08:23 PM 37.1142 -104.4528 130° Southeast 502 578 45,000  Level Denver Center
Fri 06:09:18 PM 37.0306 -104.3236 129° Southeast 502 578 45,000  Level Albuquerque Center
Fri 06:10:20 PM 36.9461 -104.1956 130° Southeast 501 577 45,000 49 Level Albuquerque Center
Fri 06:11:21 PM 36.8608 -104.0669 130° Southeast 503 579 45,100 195 Climbing Albuquerque Center
Fri 06:12:23 PM 36.7619 -103.9172 129° Southeast 502 578 45,400 290 Climbing Albuquerque Center
Fri 06:13:25 PM 36.6781 -103.7914 130° Southeast 498 573 45,700 293 Climbing Albuquerque Center
Fri 06:14:26 PM 36.5864 -103.6561 130° Southeast 496 571 46,000 293 Climbing Albuquerque Center
Fri 06:15:28 PM 36.5153 -103.5097 121° Southeast 487 560 46,300 290 Climbing Albuquerque Center
Fri 06:16:30 PM 36.4531 -103.3558 117° Southeast 491 565 46,600 293 Climbing Albuquerque Center
Fri 06:17:31 PM 36.3919 -103.2047 117° Southeast 486 559 46,900 195 Climbing Albuquerque Center
Fri 06:18:33 PM 36.3203 -103.0292 117° Southeast 485 558 47,000 49 Climbing Albuquerque Center
Fri 06:19:34 PM 36.2619 -102.8867 117° Southeast 484 557 47,000  Level Albuquerque Center
Fri 06:20:36 PM 36.2003 -102.7375 117° Southeast 487 560 47,000  Level Albuquerque Center
Fri 06:21:38 PM 36.1386 -102.5881 117° Southeast 487 560 47,000  Level Albuquerque Center
Fri 06:22:39 PM 36.0769 -102.4400 117° Southeast 485 558 47,000  Level Albuquerque Center
Fri 06:23:41 PM 36.0150 -102.2903 117° Southeast 488 562 47,000  Level Albuquerque Center
Fri 06:24:43 PM 35.9394 -102.1114 118° Southeast 490 564 47,000  Level Albuquerque Center
Fri 06:25:44 PM 35.8764 -101.9625 118° Southeast 489 563 47,000  Level Albuquerque Center
Fri 06:26:46 PM 35.8139 -101.8125 117° Southeast 491 565 47,000  Level Albuquerque Center
Fri 06:27:47 PM 35.7517 -101.6658 118° Southeast 484 557 47,000  Level Albuquerque Center
Fri 06:28:49 PM 35.6881 -101.5161 118° Southeast 488 562 47,000  Level Albuquerque Center
Fri 06:29:51 PM 35.6233 -101.3675 118° Southeast 489 563 47,000  Level Albuquerque Center
Fri 06:30:52 PM 35.5594 -101.2186 118° Southeast 489 563 47,000  Level Albuquerque Center
Fri 06:31:54 PM 35.4939 -101.0703 118° Southeast 491 565 47,000  Level Albuquerque Center
Fri 06:32:56 PM 35.4289 -100.9217 118° Southeast 492 566 47,000  Level Albuquerque Center
Fri 06:33:57 PM 35.3639 -100.7736 118° Southeast 493 567 47,000  Level Albuquerque Center
Fri 06:34:59 PM 35.2972 -100.6231 118° Southeast 492 566 47,000  Level Albuquerque Center
Fri 06:36:01 PM 35.2203 -100.4469 118° Southeast 491 565 47,000  Level Albuquerque Center
Fri 06:37:02 PM 35.1542 -100.2994 119° Southeast 493 567 47,000  Level Albuquerque Center
Fri 06:38:04 PM 35.0883 -100.1539 119° Southeast 492 566 47,000  Level Albuquerque Center
Fri 06:39:05 PM 35.0242 -100.0078 118° Southeast 491 565 47,000  Level Albuquerque Center
Fri 06:40:07 PM 34.9578 -99.8625 119° Southeast 491 565 47,000  Level Albuquerque Center
Fri 06:41:07 PM 34.8906 -99.7169 119° Southeast 487 560 47,000  Level Fort Worth Center
Fri 06:42:07 PM 34.8244 -99.5736 119° Southeast 493 567 47,000  Level Fort Worth Center
Fri 06:43:07 PM 34.7581 -99.4253 119° Southeast 493 567 47,000  Level Fort Worth Center
Fri 06:44:07 PM 34.6914 -99.2800 119° Southeast 493 567 47,000  Level Fort Worth Center
Fri 06:45:07 PM 34.6247 -99.1344 119° Southeast 493 567 47,000  Level Fort Worth Center
Fri 06:46:07 PM 34.5536 -98.9819 119° Southeast 487 560 47,000  Level Fort Worth Center
Fri 06:47:07 PM 34.4864 -98.8369 119° Southeast 487 560 47,000  Level Fort Worth Center
Fri 06:48:07 PM 34.4172 -98.6922 120° Southeast 492 566 47,000  Level Fort Worth Center
Fri 06:49:07 PM 34.3497 -98.5456 119° Southeast 492 566 47,000  Level Fort Worth Center
Fri 06:50:07 PM 34.2800 -98.3989 120° Southeast 492 566 47,000  Level Fort Worth Center
Fri 06:51:07 PM 34.2164 -98.2675 120° Southeast 499 574 47,000  Level Fort Worth Center
Fri 06:52:07 PM 34.1483 -98.1186 119° Southeast 499 574 47,000  Level Fort Worth Center
Fri 06:53:07 PM 34.0803 -97.9578 117° Southeast 499 574 47,000  Level Fort Worth Center
Fri 06:54:07 PM 34.0119 -97.8144 120° Southeast 499 574 47,000  Level Fort Worth Center
Fri 06:55:07 PM 33.9414 -97.6689 120° Southeast 494 568 47,000  Level Fort Worth Center
Fri 06:56:07 PM 33.8747 -97.5311 120° Southeast 494 568 47,000  Level Fort Worth Center
Fri 06:57:07 PM 33.8061 -97.3886 120° Southeast 494 568 47,000  Level Fort Worth Center
Fri 06:58:07 PM 33.7369 -97.2461 120° Southeast 494 568 47,000  Level Fort Worth Center
Fri 06:59:07 PM 33.6681 -97.1089 121° Southeast 488 562 47,000  Level Fort Worth Center
Fri 07:00:07 PM 33.6008 -96.9669 120° Southeast 488 562 47,000  Level Fort Worth Center
Fri 07:01:07 PM 33.5314 -96.8278 121° Southeast 488 562 47,000  Level Fort Worth Center
Fri 07:02:07 PM 33.4700 -96.7036 121° Southeast 488 562 47,000  Level Fort Worth Center
Fri 07:03:07 PM 33.4003 -96.5650 121° Southeast 488 562 47,000  Level Fort Worth Center
Fri 07:04:07 PM 33.3306 -96.4264 121° Southeast 488 562 47,000  Level Fort Worth Center
Fri 07:05:07 PM 33.2625 -96.2856 120° Southeast 488 562 47,000  Level Fort Worth Center
Fri 07:06:07 PM 33.1922 -96.1475 121° Southeast 488 562 47,000  Level Fort Worth Center
Fri 07:07:07 PM 33.1344 -96.0019 115° Southeast 488 562 47,000  Level Fort Worth Center
Fri 07:08:07 PM 33.1014 -95.8461 104° East 471 542 47,000  Level Fort Worth Center
Fri 07:09:07 PM 33.0681 -95.6906 104° East 477 549 47,000  Level Fort Worth Center
Fri 07:10:07 PM 33.0281 -95.5378 107° East 477 549 47,000  Level Fort Worth Center
Fri 07:11:07 PM 32.9986 -95.3775 102° East 477 549 47,000  Level Fort Worth Center
Fri 07:12:07 PM 32.9647 -95.2222 105° East 482 555 47,000  Level Fort Worth Center
Fri 07:13:07 PM 32.9222 -95.0672 108° East 482 555 47,000  Level Fort Worth Center
Fri 07:14:07 PM 32.8506 -94.9306 122° Southeast 482 555 47,000  Level Fort Worth Center
Fri 07:15:07 PM 32.7728 -94.7969 125° Southeast 487 560 47,000  Level Fort Worth Center
Fri 07:16:07 PM 32.6947 -94.6611 124° Southeast 492 566 47,000  Level Fort Worth Center
Fri 07:17:07 PM 32.6186 -94.5278 124° Southeast 497 572 47,000  Level Fort Worth Center
Fri 07:18:07 PM 32.5425 -94.3944 124° Southeast 491 565 47,000  Level Fort Worth Center
Fri 07:19:07 PM 32.4664 -94.2642 125° Southeast 486 559 47,000  Level Fort Worth Center
Fri 07:20:07 PM 32.3919 -94.1339 124° Southeast 486 559 47,000  Level Fort Worth Center
Fri 07:21:07 PM 32.3133 -94.0039 126° Southeast 486 559 47,000  Level Fort Worth Center
Fri 07:23:34 PM 32.1286 -93.6825 124° Southeast 474 545 47,000  Level Houston Center
Fri 07:24:36 PM 32.0561 -93.5617 125° Southeast 472 543 47,000  Level Houston Center
Fri 07:25:38 PM 31.9814 -93.4347 125° Southeast 472 543 47,000  Level Houston Center
Fri 07:26:40 PM 31.9067 -93.3086 125° Southeast 470 541 47,000  Level Houston Center
Fri 07:27:42 PM 31.8175 -93.1586 125° Southeast 467 537 47,000  Level Houston Center
Fri 07:28:44 PM 31.7497 -93.0447 125° Southeast 468 539 47,000  Level Houston Center
Fri 07:29:46 PM 31.6750 -92.9228 126° Southeast 462 532 47,000  Level Houston Center
Fri 07:30:47 PM 31.6008 -92.7986 125° Southeast 465 535 47,000  Level Houston Center
Fri 07:31:49 PM 31.5117 -92.6506 125° Southeast 463 533 47,000  Level Houston Center
Fri 07:32:51 PM 31.4369 -92.5267 125° Southeast 466 536 47,000  Level Houston Center
Fri 07:33:53 PM 31.3594 -92.4014 126° Southeast 473 544 47,000  Level Houston Center
Fri 07:34:55 PM 31.2853 -92.2778 125° Southeast 468 539 47,000  Level Houston Center
Fri 07:35:57 PM 31.2081 -92.1533 126° Southeast 470 541 47,000  Level Houston Center
Fri 07:36:59 PM 31.1181 -92.0089 126° Southeast 473 544 47,000  Level Houston Center
Fri 07:38:01 PM 31.0419 -91.8839 125° Southeast 474 545 47,000  Level Houston Center
Fri 07:39:03 PM 30.9642 -91.7589 126° Southeast 475 547 47,000  Level Houston Center
Fri 07:40:05 PM 30.8881 -91.6347 126° Southeast 473 544 47,000  Level Houston Center
Fri 07:41:07 PM 30.8108 -91.5108 126° Southeast 473 544 47,000  Level Houston Center
Fri 07:42:09 PM 30.7328 -91.3864 126° Southeast 474 545 47,000  Level Houston Center
Fri 07:43:11 PM 30.6572 -91.2639 126° Southeast 471 542 47,000  Level Houston Center
Fri 07:44:13 PM 30.5647 -91.1164 126° Southeast 471 542 47,000  Level Houston Center
Fri 07:45:15 PM 30.4858 -90.9958 127° Southeast 471 542 47,000  Level Houston Center
Fri 07:46:17 PM 30.4108 -90.8758 126° Southeast 466 536 47,000  Level Houston Center
Fri 07:47:18 PM 30.3350 -90.7567 126° Southeast 462 532 47,000  Level Houston Center
Fri 07:48:20 PM 30.2569 -90.6361 127° Southeast 462 532 47,000  Level Houston Center
Fri 07:49:22 PM 30.1842 -90.5200 126° Southeast 457 526 47,000  Level Houston Center
Fri 07:50:24 PM 30.0944 -90.3822 127° Southeast 451 519 47,000  Level Houston Center
Fri 07:51:26 PM 30.0203 -90.2667 127° Southeast 451 519 47,000  Level Houston Center
Fri 07:52:28 PM 29.9461 -90.1517 127° Southeast 451 519 47,000  Level Houston Center
Fri 07:53:30 PM 29.8706 -90.0350 127° Southeast 458 527 47,000  Level Houston Center
Fri 07:54:32 PM 29.7911 -89.9236 129° Southeast 455 524 47,000  Level Houston Center
Fri 07:55:34 PM 29.7039 -89.7828 125° Southeast 457 526 47,000  Level Houston Center
Fri 07:56:36 PM 29.6653 -89.6444 108° East 456 525 47,000  Level Houston Center
Fri 07:57:38 PM 29.6253 -89.5036 108° East 466 536 47,000  Level Houston Center
Fri 07:58:40 PM 29.5853 -89.3644 108° East 463 533 47,000  Level Houston Center
Fri 07:59:42 PM 29.5461 -89.2283 108° East 455 524 47,000  Level Houston Center
Fri 08:00:44 PM 29.4978 -89.0617 108° East 459 528 47,000  Level Houston Center
Fri 08:01:45 PM 29.4575 -88.9239 109° East 459 528 47,000  Level Houston Center
Fri 08:02:47 PM 29.4172 -88.7872 109° East 455 524 47,000  Level Houston Center
Fri 08:03:49 PM 29.3769 -88.6492 108° East 457 526 47,000 -48 Level Houston Center
Fri 08:04:51 PM 29.3358 -88.5114 109° East 458 527 46,900  Descending Houston Center
Fri 08:05:53 PM 29.2956 -88.3742 109° East 456 525 47,000 48 Climbing Houston Center
Fri 08:06:55 PM 29.2467 -88.2106 109° East 453 521 47,000 -48 Level Houston Center
Fri 08:07:57 PM 29.2056 -88.0750 109° East 452 520 46,900  Descending Houston Center
Fri 08:08:59 PM 29.1694 -87.9547 109° East 455 524 47,000 48 Climbing Houston Center
Fri 08:10:01 PM 29.1200 -87.7922 109° East 453 521 47,000 -48 Level Houston Center
Fri 08:11:03 PM 29.0797 -87.6564 109° East 453 521 46,900  Descending Houston Center
Fri 08:12:05 PM 29.0383 -87.5203 109° East 454 522 47,000 48 Climbing Houston Center
Fri 08:13:07 PM 28.9958 -87.3844 110° East 454 522 47,000  Level Houston Center
Fri 08:14:09 PM 28.9536 -87.2481 109° East 456 525 47,000  Level Houston Center
Fri 08:15:10 PM 28.9133 -87.1119 109° East 455 524 47,000 -49 Level Houston Center
Fri 08:16:12 PM 28.8606 -86.9475 110° East 459 528 46,900  Descending Houston Center
Fri 08:17:14 PM 28.8189 -86.8119 109° East 457 526 47,000 48 Climbing Houston Center
Fri 08:18:16 PM 28.7767 -86.6758 109° East 455 524 47,000 -45 Level Houston Center
Fri 08:19:28 PM 28.7247 -86.5194 111° Southeast 458 527 46,900  Descending Jacksonville Center
Fri 08:20:28 PM 28.6825 -86.3831 109° East 453 521 47,000  Climbing Jacksonville Center
Fri 08:21:28 PM 28.6383 -86.2442 110° East 458 527 46,900  Descending Jacksonville Center
Fri 08:22:28 PM 28.5958 -86.1128 110° East 453 521 47,000  Climbing Jacksonville Center
Fri 08:23:28 PM 28.5511 -85.9767 110° East 453 521 46,900  Descending Jacksonville Center
Fri 08:24:28 PM 28.5083 -85.8406 110° East 458 527 47,000 50 Climbing Jacksonville Center
Fri 08:25:28 PM 28.4636 -85.7025 110° East 458 527 47,000  Level Jacksonville Center
Fri 08:26:28 PM 28.4203 -85.5714 111° Southeast 453 521 47,000  Level Jacksonville Center
Fri 08:28:22 PM 28.3372 -85.3108 110° East 456 525 47,000  Level Miami Center
Fri 08:29:22 PM 28.2931 -85.1733 110° East 461 531 47,000  Level Miami Center
Fri 08:30:22 PM 28.2489 -85.0383 110° East 461 531 47,000 -50 Level Miami Center
Fri 08:31:22 PM 28.2042 -84.9056 111° Southeast 461 531 46,900 -50 Descending Miami Center
Fri 08:32:22 PM 28.1597 -84.7708 110° East 455 524 46,900 50 Level Miami Center
Fri 08:33:22 PM 28.1111 -84.6311 111° Southeast 466 536 47,000 50 Climbing Miami Center
Fri 08:34:22 PM 28.0681 -84.4964 110° East 459 528 47,000 -250 Level Miami Center
Fri 08:35:22 PM 28.0250 -84.3644 110° East 459 528 46,500 -1,100 Descending Miami Center
Fri 08:36:22 PM 27.9800 -84.2322 111° Southeast 459 528 44,800 -2,000 Descending Miami Center
Fri 08:37:22 PM 27.9325 -84.0956 111° Southeast 465 535 42,500 -1,900 Descending Miami Center
Fri 08:38:22 PM 27.8872 -83.9611 111° Southeast 465 535 41,000 -2,250 Descending Miami Center
Fri 08:39:22 PM 27.8417 -83.8247 111° Southeast 459 528 38,000 -3,450 Descending Miami Center
Fri 08:40:22 PM 27.7925 -83.6786 111° Southeast 478 550 34,100 -4,100 Descending Miami Center
Fri 08:41:22 PM 27.7428 -83.5397 112° Southeast 478 550 29,800 -4,400 Descending Miami Center
Fri 08:42:22 PM 27.6969 -83.3986 110° East 478 550 25,300 -4,500 Descending Miami Center
Fri 08:43:22 PM 27.6511 -83.2625 111° Southeast 478 550 20,800 -4,500 Descending Miami Center
Fri 08:44:22 PM 27.6025 -83.1311 113° Southeast 465 535 16,300 -3,900 Descending Miami Center
Fri 08:45:22 PM 27.5619 -83.0072 110° East 446 513 13,000 -1,850 Descending Miami Center
Fri 08:46:22 PM 27.5192 -82.8833 111° Southeast 428 493 12,600 -655 Descending Miami Center
Fri 08:47:12 PM 27.4667 -82.7833 121° Southeast 345 397 11,800 -2,018 Descending Tampa TRACON
Fri 08:48:12 PM 27.4000 -82.7167 138° Southeast 294 338 8,900 -3,050 Descending Tampa TRACON
Fri 08:49:12 PM 27.3500 -82.6667 138° Southeast 283 326 5,700 -1,950 Descending Tampa TRACON
Fri 08:50:12 PM 27.2833 -82.6000 138° Southeast 279 321 5,000 -350 Descending Tampa TRACON
Fri 08:51:12 PM 27.2333 -82.5500 138° Southeast 278 320 5,000  Level Tampa TRACON
Fri 08:53:22 PM 27.0903 -82.4483 148° Southeast 276 318 5,000  Level Miami Center
Fri 08:55:00 PM 27.0079 -82.2277 121° Southeast  Level Estimated
Fri 09:02:00 PM 26.9167 -81.9833 123° Southeast  Level FlightAware Approximate
Fri 09:03:00 PM 26.9189 -81.9909 123° Southeast  Level Estimated
Fri 09:04:00 PM 26.9167 -81.9833 123° Southeast  Level FlightAware Approximate
Fri 09:05:00 PM 26.9189 -81.9909 123° Southeast  Level Estimated
Fri 09:06:00 PM 26.9167 -81.9833 123° Southeast  Level FlightAware Approximate
Fri 09:07:00 PM 26.9189 -81.9909 123° Southeast  Level Estimated
Fri 09:08:00 PM 26.9167 -81.9833 123° Southeast  Level FlightAware Approximate
Fri 09:09:00 PM 26.9189 -81.9909 123° Southeast  Level Estimated

Login

Don't have an account? Register now (free) for customized features, flight alerts, and more!